sensor_id;sensor_type;location;lat;lon;timestamp;temperature;humidity
78448;SHT31;67742;51.972;5.682;2023-07-31T00:00:06;19.2;69.7
78448;SHT31;67742;51.972;5.682;2023-07-31T00:02:36;19.2;70.1
78448;SHT31;67742;51.972;5.682;2023-07-31T00:05:08;19.2;70.0
78448;SHT31;67742;51.972;5.682;2023-07-31T00:07:37;19.2;70.3
78448;SHT31;67742;51.972;5.682;2023-07-31T00:10:07;19.2;70.2
78448;SHT31;67742;51.972;5.682;2023-07-31T00:12:37;19.2;70.3
78448;SHT31;67742;51.972;5.682;2023-07-31T00:15:07;19.2;70.3
78448;SHT31;67742;51.972;5.682;2023-07-31T00:17:36;19.2;70.6
78448;SHT31;67742;51.972;5.682;2023-07-31T00:20:06;19.2;70.9
78448;SHT31;67742;51.972;5.682;2023-07-31T00:22:35;19.2;70.7
78448;SHT31;67742;51.972;5.682;2023-07-31T00:25:05;19.2;71.0
78448;SHT31;67742;51.972;5.682;2023-07-31T00:27:34;19.2;71.5
78448;SHT31;67742;51.972;5.682;2023-07-31T00:30:03;19.2;71.4
78448;SHT31;67742;51.972;5.682;2023-07-31T00:32:32;19.2;71.5
78448;SHT31;67742;51.972;5.682;2023-07-31T00:35:00;19.2;72.4
78448;SHT31;67742;51.972;5.682;2023-07-31T00:37:31;19.2;72.1
78448;SHT31;67742;51.972;5.682;2023-07-31T00:40:00;19.2;72.8
78448;SHT31;67742;51.972;5.682;2023-07-31T00:42:30;19.2;73.5
78448;SHT31;67742;51.972;5.682;2023-07-31T00:45:00;19.2;73.5
78448;SHT31;67742;51.972;5.682;2023-07-31T00:47:29;19.1;74.3
78448;SHT31;67742;51.972;5.682;2023-07-31T00:49:58;19.1;74.7
78448;SHT31;67742;51.972;5.682;2023-07-31T00:52:27;19.1;74.8
78448;SHT31;67742;51.972;5.682;2023-07-31T00:54:55;19.1;75.4
78448;SHT31;67742;51.972;5.682;2023-07-31T00:57:24;19.1;75.3
78448;SHT31;67742;51.972;5.682;2023-07-31T00:59:53;19.1;75.5
78448;SHT31;67742;51.972;5.682;2023-07-31T01:02:21;19.1;75.7
78448;SHT31;67742;51.972;5.682;2023-07-31T01:04:52;19.1;75.7
78448;SHT31;67742;51.972;5.682;2023-07-31T01:07:25;19.1;75.8
78448;SHT31;67742;51.972;5.682;2023-07-31T01:10:06;19.1;75.8
78448;SHT31;67742;51.972;5.682;2023-07-31T01:12:38;19.2;75.7
78448;SHT31;67742;51.972;5.682;2023-07-31T01:15:09;19.2;75.8
78448;SHT31;67742;51.972;5.682;2023-07-31T01:17:42;19.2;75.7
78448;SHT31;67742;51.972;5.682;2023-07-31T01:20:15;19.2;75.5
78448;SHT31;67742;51.972;5.682;2023-07-31T01:23:26;19.2;75.6
78448;SHT31;67742;51.972;5.682;2023-07-31T01:26:03;19.2;75.7
78448;SHT31;67742;51.972;5.682;2023-07-31T01:28:43;19.2;75.4
78448;SHT31;67742;51.972;5.682;2023-07-31T01:31:16;19.2;75.7
78448;SHT31;67742;51.972;5.682;2023-07-31T01:33:47;19.2;75.4
78448;SHT31;67742;51.972;5.682;2023-07-31T01:36:19;19.2;75.6
78448;SHT31;67742;51.972;5.682;2023-07-31T01:38:47;19.2;75.5
78448;SHT31;67742;51.972;5.682;2023-07-31T01:41:18;19.2;75.5
78448;SHT31;67742;51.972;5.682;2023-07-31T01:43:47;19.2;75.3
78448;SHT31;67742;51.972;5.682;2023-07-31T01:46:15;19.2;75.4
78448;SHT31;67742;51.972;5.682;2023-07-31T01:48:44;19.2;75.1
78448;SHT31;67742;51.972;5.682;2023-07-31T01:51:12;19.2;75.3
78448;SHT31;67742;51.972;5.682;2023-07-31T01:53:41;19.2;75.2
78448;SHT31;67742;51.972;5.682;2023-07-31T01:56:09;19.2;74.8
78448;SHT31;67742;51.972;5.682;2023-07-31T01:58:38;19.2;75.0
78448;SHT31;67742;51.972;5.682;2023-07-31T02:01:06;19.2;74.9
78448;SHT31;67742;51.972;5.682;2023-07-31T02:03:35;19.2;74.9
78448;SHT31;67742;51.972;5.682;2023-07-31T02:06:04;19.2;75.1
78448;SHT31;67742;51.972;5.682;2023-07-31T02:08:32;19.2;75.3
78448;SHT31;67742;51.972;5.682;2023-07-31T02:11:01;19.2;75.2
78448;SHT31;67742;51.972;5.682;2023-07-31T02:13:29;19.2;75.5
78448;SHT31;67742;51.972;5.682;2023-07-31T02:16:00;19.2;75.5
78448;SHT31;67742;51.972;5.682;2023-07-31T02:18:28;19.2;75.4
78448;SHT31;67742;51.972;5.682;2023-07-31T02:20:57;19.1;75.4
78448;SHT31;67742;51.972;5.682;2023-07-31T02:23:27;19.1;75.6
78448;SHT31;67742;51.972;5.682;2023-07-31T02:25:56;19.1;75.7
78448;SHT31;67742;51.972;5.682;2023-07-31T02:28:24;19.1;75.8
78448;SHT31;67742;51.972;5.682;2023-07-31T02:30:53;19.0;76.0
78448;SHT31;67742;51.972;5.682;2023-07-31T02:33:21;19.0;76.2
78448;SHT31;67742;51.972;5.682;2023-07-31T02:35:50;19.0;75.7
78448;SHT31;67742;51.972;5.682;2023-07-31T02:38:18;19.0;75.8
78448;SHT31;67742;51.972;5.682;2023-07-31T02:40:49;19.0;75.8
78448;SHT31;67742;51.972;5.682;2023-07-31T02:43:18;19.0;75.5
78448;SHT31;67742;51.972;5.682;2023-07-31T02:45:50;19.0;75.8
78448;SHT31;67742;51.972;5.682;2023-07-31T02:48:19;19.1;75.5
78448;SHT31;67742;51.972;5.682;2023-07-31T02:50:49;19.1;75.3
78448;SHT31;67742;51.972;5.682;2023-07-31T02:53:17;19.1;75.3
78448;SHT31;67742;51.972;5.682;2023-07-31T02:55:46;19.1;74.8
78448;SHT31;67742;51.972;5.682;2023-07-31T02:58:14;19.1;74.9
78448;SHT31;67742;51.972;5.682;2023-07-31T03:00:44;19.1;74.7
78448;SHT31;67742;51.972;5.682;2023-07-31T03:03:13;19.1;74.5
78448;SHT31;67742;51.972;5.682;2023-07-31T03:05:42;19.1;74.4
78448;SHT31;67742;51.972;5.682;2023-07-31T03:08:10;19.1;74.6
78448;SHT31;67742;51.972;5.682;2023-07-31T03:10:39;19.1;74.4
78448;SHT31;67742;51.972;5.682;2023-07-31T03:13:07;19.1;74.2
78448;SHT31;67742;51.972;5.682;2023-07-31T03:15:36;19.1;74.4
78448;SHT31;67742;51.972;5.682;2023-07-31T03:18:04;19.1;74.3
78448;SHT31;67742;51.972;5.682;2023-07-31T03:20:33;19.1;74.3
78448;SHT31;67742;51.972;5.682;2023-07-31T03:23:01;19.1;73.9
78448;SHT31;67742;51.972;5.682;2023-07-31T03:25:30;19.1;73.7
78448;SHT31;67742;51.972;5.682;2023-07-31T03:27:58;19.1;73.7
78448;SHT31;67742;51.972;5.682;2023-07-31T03:30:27;19.1;73.4
78448;SHT31;67742;51.972;5.682;2023-07-31T03:32:55;19.1;73.5
78448;SHT31;67742;51.972;5.682;2023-07-31T03:35:24;19.1;73.2
78448;SHT31;67742;51.972;5.682;2023-07-31T03:37:52;19.1;73.2
78448;SHT31;67742;51.972;5.682;2023-07-31T03:40:21;19.1;73.3
78448;SHT31;67742;51.972;5.682;2023-07-31T03:42:49;19.1;73.0
78448;SHT31;67742;51.972;5.682;2023-07-31T03:45:18;19.1;73.3
78448;SHT31;67742;51.972;5.682;2023-07-31T03:47:46;19.1;73.0
78448;SHT31;67742;51.972;5.682;2023-07-31T03:50:15;19.1;73.1
78448;SHT31;67742;51.972;5.682;2023-07-31T03:52:46;19.1;73.3
78448;SHT31;67742;51.972;5.682;2023-07-31T03:55:17;19.1;73.2
78448;SHT31;67742;51.972;5.682;2023-07-31T03:57:48;19.1;72.8
78448;SHT31;67742;51.972;5.682;2023-07-31T04:00:18;19.2;72.5
78448;SHT31;67742;51.972;5.682;2023-07-31T04:02:48;19.2;72.3
78448;SHT31;67742;51.972;5.682;2023-07-31T04:05:17;19.2;72.2
78448;SHT31;67742;51.972;5.682;2023-07-31T04:07:45;19.2;72.1
78448;SHT31;67742;51.972;5.682;2023-07-31T04:10:16;19.2;71.8
78448;SHT31;67742;51.972;5.682;2023-07-31T04:12:44;19.2;72.2
78448;SHT31;67742;51.972;5.682;2023-07-31T04:15:13;19.2;71.9
78448;SHT31;67742;51.972;5.682;2023-07-31T04:17:42;19.2;72.1
78448;SHT31;67742;51.972;5.682;2023-07-31T04:20:11;19.2;71.7
78448;SHT31;67742;51.972;5.682;2023-07-31T04:22:40;19.2;72.2
78448;SHT31;67742;51.972;5.682;2023-07-31T04:25:09;19.2;71.6
78448;SHT31;67742;51.972;5.682;2023-07-31T04:27:38;19.2;71.8
78448;SHT31;67742;51.972;5.682;2023-07-31T04:30:08;19.2;71.6
78448;SHT31;67742;51.972;5.682;2023-07-31T04:32:36;19.2;71.8
78448;SHT31;67742;51.972;5.682;2023-07-31T04:35:06;19.2;72.0
78448;SHT31;67742;51.972;5.682;2023-07-31T04:37:35;19.2;71.3
78448;SHT31;67742;51.972;5.682;2023-07-31T04:40:06;19.3;71.8
78448;SHT31;67742;51.972;5.682;2023-07-31T04:42:34;19.3;71.2
78448;SHT31;67742;51.972;5.682;2023-07-31T04:45:04;19.3;71.5
78448;SHT31;67742;51.972;5.682;2023-07-31T04:47:32;19.3;71.0
78448;SHT31;67742;51.972;5.682;2023-07-31T04:50:01;19.3;71.1
78448;SHT31;67742;51.972;5.682;2023-07-31T04:52:29;19.3;70.8
78448;SHT31;67742;51.972;5.682;2023-07-31T04:54:58;19.3;70.9
78448;SHT31;67742;51.972;5.682;2023-07-31T04:57:26;19.3;71.1
78448;SHT31;67742;51.972;5.682;2023-07-31T04:59:55;19.3;70.9
78448;SHT31;67742;51.972;5.682;2023-07-31T05:02:25;19.3;71.4
78448;SHT31;67742;51.972;5.682;2023-07-31T05:04:54;19.3;71.2
78448;SHT31;67742;51.972;5.682;2023-07-31T05:07:22;19.3;71.5
78448;SHT31;67742;51.972;5.682;2023-07-31T05:09:51;19.3;71.7
78448;SHT31;67742;51.972;5.682;2023-07-31T05:12:19;19.3;71.7
78448;SHT31;67742;51.972;5.682;2023-07-31T05:14:48;19.3;71.7
78448;SHT31;67742;51.972;5.682;2023-07-31T05:17:16;19.3;71.6
78448;SHT31;67742;51.972;5.682;2023-07-31T05:19:45;19.4;71.7
78448;SHT31;67742;51.972;5.682;2023-07-31T05:22:13;19.4;71.5
78448;SHT31;67742;51.972;5.682;2023-07-31T05:24:42;19.4;71.6
78448;SHT31;67742;51.972;5.682;2023-07-31T05:27:11;19.4;71.7
78448;SHT31;67742;51.972;5.682;2023-07-31T05:29:41;19.4;71.6
78448;SHT31;67742;51.972;5.682;2023-07-31T05:32:11;19.4;71.6
78448;SHT31;67742;51.972;5.682;2023-07-31T05:34:40;19.4;72.1
78448;SHT31;67742;51.972;5.682;2023-07-31T05:37:10;19.4;72.0
78448;SHT31;67742;51.972;5.682;2023-07-31T05:39:39;19.4;72.0
78448;SHT31;67742;51.972;5.682;2023-07-31T05:42:08;19.4;72.2
78448;SHT31;67742;51.972;5.682;2023-07-31T05:44:37;19.4;72.2
78448;SHT31;67742;51.972;5.682;2023-07-31T05:47:06;19.4;71.9
78448;SHT31;67742;51.972;5.682;2023-07-31T05:49:35;19.4;72.4
78448;SHT31;67742;51.972;5.682;2023-07-31T05:52:04;19.3;72.5
78448;SHT31;67742;51.972;5.682;2023-07-31T05:54:34;19.3;72.8
78448;SHT31;67742;51.972;5.682;2023-07-31T05:57:03;19.3;72.9
78448;SHT31;67742;51.972;5.682;2023-07-31T05:59:32;19.3;72.9
78448;SHT31;67742;51.972;5.682;2023-07-31T06:02:00;19.3;73.4
78448;SHT31;67742;51.972;5.682;2023-07-31T06:04:29;19.3;73.2
78448;SHT31;67742;51.972;5.682;2023-07-31T06:06:58;19.3;73.6
78448;SHT31;67742;51.972;5.682;2023-07-31T06:09:27;19.3;73.7
78448;SHT31;67742;51.972;5.682;2023-07-31T06:11:55;19.3;73.8
78448;SHT31;67742;51.972;5.682;2023-07-31T06:14:24;19.2;74.0
78448;SHT31;67742;51.972;5.682;2023-07-31T06:16:52;19.2;74.3
78448;SHT31;67742;51.972;5.682;2023-07-31T06:19:21;19.2;74.5
78448;SHT31;67742;51.972;5.682;2023-07-31T06:21:49;19.2;74.5
78448;SHT31;67742;51.972;5.682;2023-07-31T06:24:18;19.2;74.8
78448;SHT31;67742;51.972;5.682;2023-07-31T06:26:48;19.2;75.2
78448;SHT31;67742;51.972;5.682;2023-07-31T06:29:17;19.2;75.0
78448;SHT31;67742;51.972;5.682;2023-07-31T06:31:46;19.2;75.3
78448;SHT31;67742;51.972;5.682;2023-07-31T06:34:14;19.2;75.4
78448;SHT31;67742;51.972;5.682;2023-07-31T06:36:45;19.2;75.7
78448;SHT31;67742;51.972;5.682;2023-07-31T06:39:13;19.3;75.6
78448;SHT31;67742;51.972;5.682;2023-07-31T06:41:43;19.3;75.4
78448;SHT31;67742;51.972;5.682;2023-07-31T06:44:12;19.3;75.4
78448;SHT31;67742;51.972;5.682;2023-07-31T06:46:41;19.3;75.1
78448;SHT31;67742;51.972;5.682;2023-07-31T06:49:09;19.3;75.3
78448;SHT31;67742;51.972;5.682;2023-07-31T06:51:38;19.3;75.2
78448;SHT31;67742;51.972;5.682;2023-07-31T06:54:08;19.4;75.4
78448;SHT31;67742;51.972;5.682;2023-07-31T06:56:37;19.4;75.6
78448;SHT31;67742;51.972;5.682;2023-07-31T06:59:07;19.4;75.4
78448;SHT31;67742;51.972;5.682;2023-07-31T07:01:35;19.4;75.2
78448;SHT31;67742;51.972;5.682;2023-07-31T07:04:04;19.4;75.5
78448;SHT31;67742;51.972;5.682;2023-07-31T07:06:33;19.4;75.6
78448;SHT31;67742;51.972;5.682;2023-07-31T07:09:02;19.5;75.5
78448;SHT31;67742;51.972;5.682;2023-07-31T07:11:31;19.5;75.5
78448;SHT31;67742;51.972;5.682;2023-07-31T07:14:00;19.5;75.9
78448;SHT31;67742;51.972;5.682;2023-07-31T07:16:29;19.5;75.8
78448;SHT31;67742;51.972;5.682;2023-07-31T07:18:58;19.5;75.8
78448;SHT31;67742;51.972;5.682;2023-07-31T07:21:27;19.5;76.3
78448;SHT31;67742;51.972;5.682;2023-07-31T07:23:55;19.5;76.2
78448;SHT31;67742;51.972;5.682;2023-07-31T07:26:24;19.5;75.9
78448;SHT31;67742;51.972;5.682;2023-07-31T07:28:53;19.5;75.8
78448;SHT31;67742;51.972;5.682;2023-07-31T07:31:22;19.5;75.9
78448;SHT31;67742;51.972;5.682;2023-07-31T07:33:50;19.5;75.9
78448;SHT31;67742;51.972;5.682;2023-07-31T07:36:19;19.5;75.9
78448;SHT31;67742;51.972;5.682;2023-07-31T07:38:47;19.5;75.9
78448;SHT31;67742;51.972;5.682;2023-07-31T07:41:16;19.5;76.0
78448;SHT31;67742;51.972;5.682;2023-07-31T07:43:46;19.5;76.0
78448;SHT31;67742;51.972;5.682;2023-07-31T07:46:14;19.5;76.1
78448;SHT31;67742;51.972;5.682;2023-07-31T07:48:43;19.5;75.9
78448;SHT31;67742;51.972;5.682;2023-07-31T07:51:11;19.5;76.4
78448;SHT31;67742;51.972;5.682;2023-07-31T07:53:40;19.5;76.7
78448;SHT31;67742;51.972;5.682;2023-07-31T07:56:08;19.5;76.4
78448;SHT31;67742;51.972;5.682;2023-07-31T07:58:37;19.5;76.4
78448;SHT31;67742;51.972;5.682;2023-07-31T08:01:05;19.5;76.4
78448;SHT31;67742;51.972;5.682;2023-07-31T08:03:34;19.6;76.6
78448;SHT31;67742;51.972;5.682;2023-07-31T08:06:03;19.6;76.5
78448;SHT31;67742;51.972;5.682;2023-07-31T08:08:32;19.6;76.4
78448;SHT31;67742;51.972;5.682;2023-07-31T08:11:00;19.6;76.4
78448;SHT31;67742;51.972;5.682;2023-07-31T08:13:29;19.6;76.6
78448;SHT31;67742;51.972;5.682;2023-07-31T08:15:58;19.6;76.6
78448;SHT31;67742;51.972;5.682;2023-07-31T08:18:27;19.6;76.7
78448;SHT31;67742;51.972;5.682;2023-07-31T08:20:55;19.6;76.8
78448;SHT31;67742;51.972;5.682;2023-07-31T08:23:24;19.7;76.8
78448;SHT31;67742;51.972;5.682;2023-07-31T08:25:52;19.7;77.0
78448;SHT31;67742;51.972;5.682;2023-07-31T08:28:21;19.7;76.8
78448;SHT31;67742;51.972;5.682;2023-07-31T08:30:50;19.7;76.8
78448;SHT31;67742;51.972;5.682;2023-07-31T08:33:18;19.7;76.7
78448;SHT31;67742;51.972;5.682;2023-07-31T08:35:47;19.8;76.9
78448;SHT31;67742;51.972;5.682;2023-07-31T08:38:15;19.8;77.3
78448;SHT31;67742;51.972;5.682;2023-07-31T08:40:44;19.8;77.1
78448;SHT31;67742;51.972;5.682;2023-07-31T08:43:12;19.8;76.9
78448;SHT31;67742;51.972;5.682;2023-07-31T08:45:46;19.8;77.0
78448;SHT31;67742;51.972;5.682;2023-07-31T08:48:16;19.8;77.1
78448;SHT31;67742;51.972;5.682;2023-07-31T08:50:46;19.9;76.9
78448;SHT31;67742;51.972;5.682;2023-07-31T08:53:14;19.9;76.7
78448;SHT31;67742;51.972;5.682;2023-07-31T08:55:44;19.9;76.7
78448;SHT31;67742;51.972;5.682;2023-07-31T08:58:13;19.9;76.6
78448;SHT31;67742;51.972;5.682;2023-07-31T09:00:43;19.9;76.9
78448;SHT31;67742;51.972;5.682;2023-07-31T09:03:15;19.9;76.6
78448;SHT31;67742;51.972;5.682;2023-07-31T09:05:46;19.9;76.5
78448;SHT31;67742;51.972;5.682;2023-07-31T09:08:20;19.9;76.6
78448;SHT31;67742;51.972;5.682;2023-07-31T09:10:49;19.9;76.8
78448;SHT31;67742;51.972;5.682;2023-07-31T09:13:18;19.9;76.8
78448;SHT31;67742;51.972;5.682;2023-07-31T09:15:47;19.9;76.6
78448;SHT31;67742;51.972;5.682;2023-07-31T09:18:15;19.9;76.4
78448;SHT31;67742;51.972;5.682;2023-07-31T09:21:02;19.9;76.4
78448;SHT31;67742;51.972;5.682;2023-07-31T09:23:42;19.9;76.6
78448;SHT31;67742;51.972;5.682;2023-07-31T09:26:30;19.9;76.3
78448;SHT31;67742;51.972;5.682;2023-07-31T09:29:01;19.9;76.5
78448;SHT31;67742;51.972;5.682;2023-07-31T09:31:38;19.9;76.5
78448;SHT31;67742;51.972;5.682;2023-07-31T09:34:08;19.9;76.8
78448;SHT31;67742;51.972;5.682;2023-07-31T09:36:42;19.9;76.7
78448;SHT31;67742;51.972;5.682;2023-07-31T09:39:13;19.9;76.9
78448;SHT31;67742;51.972;5.682;2023-07-31T09:41:44;20.0;76.7
78448;SHT31;67742;51.972;5.682;2023-07-31T09:44:13;20.0;76.5
78448;SHT31;67742;51.972;5.682;2023-07-31T09:46:44;20.0;76.8
78448;SHT31;67742;51.972;5.682;2023-07-31T09:49:14;20.0;76.9
78448;SHT31;67742;51.972;5.682;2023-07-31T09:51:42;20.0;77.0
78448;SHT31;67742;51.972;5.682;2023-07-31T09:54:12;20.0;76.9
78448;SHT31;67742;51.972;5.682;2023-07-31T09:56:47;20.0;76.9
78448;SHT31;67742;51.972;5.682;2023-07-31T09:59:17;20.1;76.8
78448;SHT31;67742;51.972;5.682;2023-07-31T10:01:49;20.1;76.4
78448;SHT31;67742;51.972;5.682;2023-07-31T10:04:20;20.1;76.3
78448;SHT31;67742;51.972;5.682;2023-07-31T10:06:55;20.1;75.9
78448;SHT31;67742;51.972;5.682;2023-07-31T10:09:25;20.1;75.9
78448;SHT31;67742;51.972;5.682;2023-07-31T10:12:05;20.2;75.9
78448;SHT31;67742;51.972;5.682;2023-07-31T10:14:36;20.2;76.0
78448;SHT31;67742;51.972;5.682;2023-07-31T10:17:08;20.2;76.5
78448;SHT31;67742;51.972;5.682;2023-07-31T10:19:37;20.2;76.2
78448;SHT31;67742;51.972;5.682;2023-07-31T10:22:08;20.3;76.1
78448;SHT31;67742;51.972;5.682;2023-07-31T10:24:37;20.3;76.4
78448;SHT31;67742;51.972;5.682;2023-07-31T10:27:07;20.3;76.2
78448;SHT31;67742;51.972;5.682;2023-07-31T10:29:37;20.3;75.7
78448;SHT31;67742;51.972;5.682;2023-07-31T10:32:09;20.4;75.9
78448;SHT31;67742;51.972;5.682;2023-07-31T10:34:41;20.4;75.7
78448;SHT31;67742;51.972;5.682;2023-07-31T10:37:38;20.4;76.0
78448;SHT31;67742;51.972;5.682;2023-07-31T10:40:11;20.4;75.7
78448;SHT31;67742;51.972;5.682;2023-07-31T10:42:49;20.5;76.0
78448;SHT31;67742;51.972;5.682;2023-07-31T10:45:31;20.5;75.5
78448;SHT31;67742;51.972;5.682;2023-07-31T10:48:02;20.5;76.1
78448;SHT31;67742;51.972;5.682;2023-07-31T10:50:33;20.5;75.7
78448;SHT31;67742;51.972;5.682;2023-07-31T10:53:05;20.6;75.6
78448;SHT31;67742;51.972;5.682;2023-07-31T10:55:39;20.6;75.3
78448;SHT31;67742;51.972;5.682;2023-07-31T10:58:10;20.6;75.3
78448;SHT31;67742;51.972;5.682;2023-07-31T11:00:40;20.6;75.9
78448;SHT31;67742;51.972;5.682;2023-07-31T11:03:12;20.6;75.8
78448;SHT31;67742;51.972;5.682;2023-07-31T11:05:47;20.6;75.8
78448;SHT31;67742;51.972;5.682;2023-07-31T11:08:18;20.7;75.8
78448;SHT31;67742;51.972;5.682;2023-07-31T11:10:50;20.7;75.7
78448;SHT31;67742;51.972;5.682;2023-07-31T11:13:23;20.7;76.1
78448;SHT31;67742;51.972;5.682;2023-07-31T11:15:51;20.7;75.7
78448;SHT31;67742;51.972;5.682;2023-07-31T11:18:20;20.7;75.7
78448;SHT31;67742;51.972;5.682;2023-07-31T11:20:49;20.7;75.4
78448;SHT31;67742;51.972;5.682;2023-07-31T11:23:19;20.8;75.5
78448;SHT31;67742;51.972;5.682;2023-07-31T11:25:49;20.8;75.9
78448;SHT31;67742;51.972;5.682;2023-07-31T11:28:19;20.8;75.8
78448;SHT31;67742;51.972;5.682;2023-07-31T11:30:48;20.8;76.0
78448;SHT31;67742;51.972;5.682;2023-07-31T11:33:17;20.8;75.8
78448;SHT31;67742;51.972;5.682;2023-07-31T11:35:47;20.8;75.9
78448;SHT31;67742;51.972;5.682;2023-07-31T11:38:24;20.8;75.9
78448;SHT31;67742;51.972;5.682;2023-07-31T11:40:55;20.9;75.5
78448;SHT31;67742;51.972;5.682;2023-07-31T11:43:24;20.9;75.2
78448;SHT31;67742;51.972;5.682;2023-07-31T11:45:57;20.9;75.3
78448;SHT31;67742;51.972;5.682;2023-07-31T11:48:31;20.9;75.5
78448;SHT31;67742;51.972;5.682;2023-07-31T11:51:04;20.9;75.7
78448;SHT31;67742;51.972;5.682;2023-07-31T11:53:37;21.0;75.6
78448;SHT31;67742;51.972;5.682;2023-07-31T11:56:09;21.0;75.5
78448;SHT31;67742;51.972;5.682;2023-07-31T11:58:41;21.0;75.8
78448;SHT31;67742;51.972;5.682;2023-07-31T12:01:13;21.1;75.3
78448;SHT31;67742;51.972;5.682;2023-07-31T12:03:42;21.1;74.4
78448;SHT31;67742;51.972;5.682;2023-07-31T12:06:11;21.1;73.8
78448;SHT31;67742;51.972;5.682;2023-07-31T12:08:39;21.1;74.2
78448;SHT31;67742;51.972;5.682;2023-07-31T12:11:09;21.2;74.4
78448;SHT31;67742;51.972;5.682;2023-07-31T12:13:39;21.2;75.0
78448;SHT31;67742;51.972;5.682;2023-07-31T12:16:08;21.2;75.0
78448;SHT31;67742;51.972;5.682;2023-07-31T12:18:38;21.2;74.2
78448;SHT31;67742;51.972;5.682;2023-07-31T12:21:08;21.3;73.9
78448;SHT31;67742;51.972;5.682;2023-07-31T12:23:38;21.3;74.1
78448;SHT31;67742;51.972;5.682;2023-07-31T12:26:11;21.3;73.9
78448;SHT31;67742;51.972;5.682;2023-07-31T12:28:41;21.3;73.5
78448;SHT31;67742;51.972;5.682;2023-07-31T12:31:12;21.3;73.4
78448;SHT31;67742;51.972;5.682;2023-07-31T12:33:41;21.3;73.9
78448;SHT31;67742;51.972;5.682;2023-07-31T12:36:12;21.3;74.3
78448;SHT31;67742;51.972;5.682;2023-07-31T12:38:42;21.3;73.9
78448;SHT31;67742;51.972;5.682;2023-07-31T12:41:13;21.3;74.1
78448;SHT31;67742;51.972;5.682;2023-07-31T12:43:43;21.3;74.1
78448;SHT31;67742;51.972;5.682;2023-07-31T12:46:12;21.3;74.2
78448;SHT31;67742;51.972;5.682;2023-07-31T12:48:41;21.3;75.2
78448;SHT31;67742;51.972;5.682;2023-07-31T12:51:10;21.3;75.6
78448;SHT31;67742;51.972;5.682;2023-07-31T12:53:39;21.3;75.1
78448;SHT31;67742;51.972;5.682;2023-07-31T12:56:07;21.3;75.4
78448;SHT31;67742;51.972;5.682;2023-07-31T12:58:36;21.3;75.6
78448;SHT31;67742;51.972;5.682;2023-07-31T13:01:04;21.4;75.2
78448;SHT31;67742;51.972;5.682;2023-07-31T13:03:33;21.4;74.6
78448;SHT31;67742;51.972;5.682;2023-07-31T13:06:03;21.4;74.7
78448;SHT31;67742;51.972;5.682;2023-07-31T13:08:32;21.5;74.3
78448;SHT31;67742;51.972;5.682;2023-07-31T13:11:01;21.5;73.8
78448;SHT31;67742;51.972;5.682;2023-07-31T13:13:29;21.5;73.8
78448;SHT31;67742;51.972;5.682;2023-07-31T13:15:58;21.5;73.7
78448;SHT31;67742;51.972;5.682;2023-07-31T13:18:27;21.5;73.4
78448;SHT31;67742;51.972;5.682;2023-07-31T13:20:55;21.5;73.7
78448;SHT31;67742;51.972;5.682;2023-07-31T13:23:24;21.5;73.8
78448;SHT31;67742;51.972;5.682;2023-07-31T13:25:52;21.5;73.9
78448;SHT31;67742;51.972;5.682;2023-07-31T13:28:21;21.6;73.7
78448;SHT31;67742;51.972;5.682;2023-07-31T13:30:49;21.6;73.4
78448;SHT31;67742;51.972;5.682;2023-07-31T13:33:18;21.6;73.9
78448;SHT31;67742;51.972;5.682;2023-07-31T13:35:48;21.6;73.2
78448;SHT31;67742;51.972;5.682;2023-07-31T13:38:17;21.6;74.0
78448;SHT31;67742;51.972;5.682;2023-07-31T13:40:46;21.6;73.9
78448;SHT31;67742;51.972;5.682;2023-07-31T13:43:14;21.6;73.8
78448;SHT31;67742;51.972;5.682;2023-07-31T13:45:42;21.6;73.5
78448;SHT31;67742;51.972;5.682;2023-07-31T13:48:11;21.6;73.4
78448;SHT31;67742;51.972;5.682;2023-07-31T13:50:39;21.6;73.4
78448;SHT31;67742;51.972;5.682;2023-07-31T13:53:10;21.6;73.4
78448;SHT31;67742;51.972;5.682;2023-07-31T13:55:39;21.6;73.6
78448;SHT31;67742;51.972;5.682;2023-07-31T13:58:07;21.6;73.6
78448;SHT31;67742;51.972;5.682;2023-07-31T14:00:36;21.6;73.6
78448;SHT31;67742;51.972;5.682;2023-07-31T14:03:04;21.6;73.5
78448;SHT31;67742;51.972;5.682;2023-07-31T14:05:33;21.6;74.0
78448;SHT31;67742;51.972;5.682;2023-07-31T14:08:01;21.6;73.5
78448;SHT31;67742;51.972;5.682;2023-07-31T14:10:30;21.6;73.9
78448;SHT31;67742;51.972;5.682;2023-07-31T14:13:00;21.7;73.5
78448;SHT31;67742;51.972;5.682;2023-07-31T14:15:29;21.7;73.5
78448;SHT31;67742;51.972;5.682;2023-07-31T14:17:58;21.7;73.5
78448;SHT31;67742;51.972;5.682;2023-07-31T14:20:29;21.7;73.7
78448;SHT31;67742;51.972;5.682;2023-07-31T14:22:58;21.7;73.5
78448;SHT31;67742;51.972;5.682;2023-07-31T14:25:28;21.7;73.4
78448;SHT31;67742;51.972;5.682;2023-07-31T14:27:58;21.6;73.7
78448;SHT31;67742;51.972;5.682;2023-07-31T14:30:27;21.6;73.8
78448;SHT31;67742;51.972;5.682;2023-07-31T14:32:55;21.6;73.8
78448;SHT31;67742;51.972;5.682;2023-07-31T14:35:24;21.6;74.0
78448;SHT31;67742;51.972;5.682;2023-07-31T14:37:52;21.6;74.0
78448;SHT31;67742;51.972;5.682;2023-07-31T14:40:21;21.6;74.2
78448;SHT31;67742;51.972;5.682;2023-07-31T14:42:50;21.6;74.2
78448;SHT31;67742;51.972;5.682;2023-07-31T14:45:18;21.6;74.1
78448;SHT31;67742;51.972;5.682;2023-07-31T14:47:47;21.6;74.1
78448;SHT31;67742;51.972;5.682;2023-07-31T14:50:15;21.6;74.2
78448;SHT31;67742;51.972;5.682;2023-07-31T14:52:45;21.6;74.1
78448;SHT31;67742;51.972;5.682;2023-07-31T14:55:14;21.6;73.8
78448;SHT31;67742;51.972;5.682;2023-07-31T14:57:42;21.6;73.9
78448;SHT31;67742;51.972;5.682;2023-07-31T15:00:12;21.6;73.6
78448;SHT31;67742;51.972;5.682;2023-07-31T15:02:41;21.6;73.8
78448;SHT31;67742;51.972;5.682;2023-07-31T15:05:12;21.6;73.6
78448;SHT31;67742;51.972;5.682;2023-07-31T15:07:41;21.6;73.7
78448;SHT31;67742;51.972;5.682;2023-07-31T15:10:10;21.6;73.7
78448;SHT31;67742;51.972;5.682;2023-07-31T15:12:40;21.6;73.7
78448;SHT31;67742;51.972;5.682;2023-07-31T15:15:09;21.5;73.4
78448;SHT31;67742;51.972;5.682;2023-07-31T15:17:38;21.5;73.7
78448;SHT31;67742;51.972;5.682;2023-07-31T15:20:10;21.5;73.5
78448;SHT31;67742;51.972;5.682;2023-07-31T15:22:39;21.5;73.9
78448;SHT31;67742;51.972;5.682;2023-07-31T15:25:11;21.5;74.0
78448;SHT31;67742;51.972;5.682;2023-07-31T15:27:39;21.5;74.1
78448;SHT31;67742;51.972;5.682;2023-07-31T15:30:09;21.5;74.3
78448;SHT31;67742;51.972;5.682;2023-07-31T15:32:39;21.5;73.9
78448;SHT31;67742;51.972;5.682;2023-07-31T15:35:08;21.5;74.2
78448;SHT31;67742;51.972;5.682;2023-07-31T15:37:37;21.5;73.9
78448;SHT31;67742;51.972;5.682;2023-07-31T15:40:06;21.5;73.8
78448;SHT31;67742;51.972;5.682;2023-07-31T15:42:35;21.5;74.0
78448;SHT31;67742;51.972;5.682;2023-07-31T15:45:09;21.5;74.0
78448;SHT31;67742;51.972;5.682;2023-07-31T15:47:38;21.5;74.0
78448;SHT31;67742;51.972;5.682;2023-07-31T15:50:10;21.5;74.2
78448;SHT31;67742;51.972;5.682;2023-07-31T15:52:41;21.5;74.1
78448;SHT31;67742;51.972;5.682;2023-07-31T15:55:10;21.5;73.9
78448;SHT31;67742;51.972;5.682;2023-07-31T15:57:38;21.4;74.2
78448;SHT31;67742;51.972;5.682;2023-07-31T16:00:08;21.4;74.2
78448;SHT31;67742;51.972;5.682;2023-07-31T16:02:39;21.4;74.1
78448;SHT31;67742;51.972;5.682;2023-07-31T16:05:09;21.4;74.3
78448;SHT31;67742;51.972;5.682;2023-07-31T16:07:40;21.4;74.2
78448;SHT31;67742;51.972;5.682;2023-07-31T16:10:09;21.4;74.2
78448;SHT31;67742;51.972;5.682;2023-07-31T16:12:38;21.4;74.2
78448;SHT31;67742;51.972;5.682;2023-07-31T16:15:07;21.4;74.1
78448;SHT31;67742;51.972;5.682;2023-07-31T16:17:36;21.3;73.9